Terminal Aerodrome Forecast
Issued by NWS

Home | Current Version | Previous Version | Text Only | Print | Product List | Glossary On
Versions: 1 2 3 4 5 6 7 8 9 10 11 12 13 14
000
FTUS41 KCAR 140500
TAFHUL
TAF
KHUL 140530Z 1406/1506 19011KT 5SM BR OVC050
     FM140800 20010KT 3SM BR OVC008
     FM141500 24009KT P6SM SCT250
     FM150400 00000KT P6SM BKN250=

USA.gov is the U.S. government's official web portal to all federal, state and local government web resources and services.